createdAt,value
2018-08-25T00:01:16.249Z,17.40
2018-08-25T00:03:44.764Z,15.17
2018-08-25T00:06:13.205Z,16.40
2018-08-25T00:08:41.705Z,15.57
2018-08-25T00:11:10.588Z,15.80
2018-08-25T00:13:39.075Z,15.50
2018-08-25T00:16:07.513Z,14.53
2018-08-25T00:18:35.992Z,16.60
2018-08-25T00:21:04.461Z,15.00
2018-08-25T00:23:32.911Z,16.43
2018-08-25T00:26:01.393Z,14.63
2018-08-25T00:28:29.877Z,15.40
2018-08-25T00:31:03.611Z,15.60
2018-08-25T00:33:32.129Z,14.70
2018-08-25T00:36:00.605Z,14.23
2018-08-25T00:38:29.096Z,15.63
2018-08-25T00:40:57.604Z,14.47
2018-08-25T00:43:26.070Z,15.00
2018-08-25T00:45:54.573Z,14.63
2018-08-25T00:48:23.125Z,14.30
2018-08-25T00:50:51.723Z,16.00
2018-08-25T00:53:20.218Z,13.73
2018-08-25T00:55:48.721Z,14.93
2018-08-25T00:58:17.266Z,14.13
2018-08-25T01:00:45.791Z,14.00
2018-08-25T01:03:14.303Z,13.23
2018-08-25T01:05:42.779Z,13.20
2018-08-25T01:08:11.264Z,15.27
2018-08-25T01:10:39.744Z,14.40
2018-08-25T01:13:08.981Z,14.40
2018-08-25T01:15:37.480Z,13.73
2018-08-25T01:18:06.068Z,13.33
2018-08-25T01:20:34.595Z,13.00
2018-08-25T01:23:03.054Z,13.13
2018-08-25T01:25:31.554Z,13.27
2018-08-25T01:28:00.019Z,15.03
2018-08-25T01:30:28.491Z,15.07
2018-08-25T01:32:56.953Z,14.27
2018-08-25T01:35:25.366Z,14.03
2018-08-25T01:37:53.930Z,13.37
2018-08-25T01:40:22.437Z,13.57
2018-08-25T01:42:50.876Z,13.73
2018-08-25T01:45:19.298Z,12.80
2018-08-25T01:47:47.780Z,13.43
2018-08-25T01:50:16.211Z,12.83
2018-08-25T01:52:44.736Z,12.97
2018-08-25T01:55:13.233Z,13.20
2018-08-25T01:57:41.680Z,13.23
2018-08-25T02:00:10.161Z,12.83
2018-08-25T02:02:38.726Z,13.97
2018-08-25T02:05:07.166Z,12.83
2018-08-25T02:07:35.615Z,12.60
2018-08-25T02:10:04.165Z,13.07
2018-08-25T02:12:32.770Z,13.23
2018-08-25T02:15:01.287Z,13.80
2018-08-25T02:17:29.806Z,13.97
2018-08-25T02:19:58.220Z,12.73
2018-08-25T02:22:26.708Z,14.57
2018-08-25T02:24:55.185Z,12.97
2018-08-25T02:27:23.633Z,13.30
2018-08-25T02:29:52.088Z,12.33
2018-08-25T02:32:20.511Z,12.03
2018-08-25T02:34:48.965Z,13.03
2018-08-25T02:37:17.385Z,14.53
2018-08-25T02:39:45.848Z,14.90
2018-08-25T02:42:14.376Z,13.77
2018-08-25T02:44:42.949Z,14.43
2018-08-25T02:47:11.362Z,14.30
2018-08-25T02:49:39.824Z,13.40
2018-08-25T02:52:08.253Z,12.80
2018-08-25T02:54:36.776Z,13.10
2018-08-25T02:57:05.229Z,12.33
2018-08-25T02:59:33.717Z,12.33
2018-08-25T03:02:02.166Z,12.03
2018-08-25T03:04:30.658Z,12.07
2018-08-25T03:06:59.122Z,11.63
2018-08-25T03:09:27.571Z,12.33
2018-08-25T03:11:56.849Z,12.67
2018-08-25T03:14:25.270Z,12.23
2018-08-25T03:16:53.722Z,12.87
2018-08-25T03:19:22.237Z,12.50
2018-08-25T03:21:50.698Z,12.70
2018-08-25T03:24:19.361Z,12.13
2018-08-25T03:26:47.862Z,13.50
2018-08-25T03:29:16.284Z,12.37
2018-08-25T03:31:44.738Z,13.07
2018-08-25T03:34:13.165Z,12.47
2018-08-25T03:36:41.669Z,13.70
2018-08-25T03:39:11.638Z,11.90
2018-08-25T03:41:40.182Z,13.27
2018-08-25T03:44:09.402Z,12.83
2018-08-25T03:46:37.900Z,12.80
2018-08-25T03:49:06.712Z,13.13
2018-08-25T03:51:35.162Z,12.30
2018-08-25T03:54:03.661Z,11.73
2018-08-25T03:56:32.168Z,13.17
2018-08-25T03:59:00.639Z,12.90
2018-08-25T04:01:29.183Z,13.20
2018-08-25T04:03:57.608Z,12.93
2018-08-25T04:06:26.088Z,12.83
2018-08-25T04:08:54.655Z,12.63
2018-08-25T04:11:23.140Z,12.83
2018-08-25T04:13:51.640Z,12.40
2018-08-25T04:16:20.262Z,13.03
2018-08-25T04:18:48.731Z,14.00
2018-08-25T04:21:17.196Z,12.47
2018-08-25T04:23:45.717Z,12.87
2018-08-25T04:26:14.174Z,12.20
2018-08-25T04:28:42.679Z,13.13
2018-08-25T04:31:11.142Z,12.57
2018-08-25T04:33:39.653Z,11.47
2018-08-25T04:36:08.140Z,12.07
2018-08-25T04:38:36.608Z,12.47
2018-08-25T04:41:05.286Z,12.87
2018-08-25T04:43:33.761Z,13.67
2018-08-25T04:46:02.203Z,12.87
2018-08-25T04:48:30.666Z,12.10
2018-08-25T04:50:59.123Z,13.33
2018-08-25T04:53:27.629Z,12.90
2018-08-25T04:55:56.075Z,11.70
2018-08-25T04:58:24.570Z,12.03
2018-08-25T05:00:53.042Z,12.00
2018-08-25T05:03:21.560Z,11.67
2018-08-25T05:05:50.548Z,12.03
2018-08-25T05:08:19.077Z,10.83
2018-08-25T05:10:47.526Z,10.83
2018-08-25T05:13:16.000Z,11.20
2018-08-25T05:15:44.496Z,11.83
2018-08-25T05:18:12.939Z,10.37
2018-08-25T05:20:41.422Z,11.93
2018-08-25T05:23:09.910Z,11.43
2018-08-25T05:25:38.403Z,12.77
2018-08-25T05:28:06.853Z,11.00
2018-08-25T05:30:35.331Z,10.17
2018-08-25T05:33:03.807Z,10.93
2018-08-25T05:35:32.303Z,11.10
2018-08-25T05:38:00.745Z,9.70
2018-08-25T05:40:29.234Z,10.67
2018-08-25T05:42:57.695Z,11.03
2018-08-25T05:45:26.220Z,10.60
2018-08-25T05:47:54.696Z,10.33
2018-08-25T05:50:23.213Z,10.87
2018-08-25T05:52:51.703Z,9.90
2018-08-25T05:55:20.182Z,9.83
2018-08-25T05:57:49.300Z,10.07
2018-08-25T06:00:17.890Z,10.03
2018-08-25T06:02:46.353Z,9.70
2018-08-25T06:05:14.837Z,10.27
2018-08-25T06:07:43.331Z,9.90
2018-08-25T06:10:11.837Z,10.53
2018-08-25T06:12:40.299Z,9.93
2018-08-25T06:15:08.778Z,10.67
2018-08-25T06:17:37.322Z,10.87
2018-08-25T06:20:05.878Z,10.90
2018-08-25T06:22:34.406Z,9.27
2018-08-25T06:25:02.896Z,8.87
2018-08-25T06:27:31.397Z,9.80
2018-08-25T06:29:59.848Z,10.80
2018-08-25T06:32:28.334Z,10.27
2018-08-25T06:34:56.830Z,8.87
2018-08-25T06:37:25.329Z,8.77
2018-08-25T06:39:53.778Z,9.10
2018-08-25T06:42:22.291Z,9.03
2018-08-25T06:44:50.889Z,9.30
2018-08-25T06:47:19.370Z,9.35
2018-08-25T06:49:47.845Z,9.43
2018-08-25T06:52:16.323Z,9.17
2018-08-25T06:54:44.803Z,9.08
2018-08-25T06:57:13.343Z,8.48
2018-08-25T06:59:41.823Z,8.60
2018-08-25T07:02:10.304Z,8.53
2018-08-25T07:04:38.767Z,7.92
2018-08-25T07:07:07.273Z,8.35
2018-08-25T07:09:35.749Z,7.80
2018-08-25T07:12:04.256Z,8.70
2018-08-25T07:14:32.734Z,7.90
2018-08-25T07:17:01.228Z,7.15
2018-08-25T07:19:29.742Z,8.73
2018-08-25T07:21:58.254Z,8.75
2018-08-25T07:24:26.744Z,7.78
2018-08-25T07:26:55.205Z,8.20
2018-08-25T07:29:23.689Z,8.20
2018-08-25T07:31:52.164Z,8.35
2018-08-25T07:34:20.654Z,7.67
2018-08-25T07:36:49.126Z,8.85
2018-08-25T07:39:17.617Z,7.42
2018-08-25T07:41:46.061Z,8.23
2018-08-25T07:44:14.576Z,7.20
2018-08-25T07:46:43.040Z,7.12
2018-08-25T07:49:11.522Z,7.22
2018-08-25T07:51:39.967Z,7.90
2018-08-25T07:54:08.469Z,7.30
2018-08-25T07:56:36.969Z,7.70
2018-08-25T07:59:05.532Z,8.20
2018-08-25T08:01:33.959Z,7.58
2018-08-25T08:04:02.410Z,7.67
2018-08-25T08:06:31.734Z,7.77
2018-08-25T08:09:00.791Z,6.08
2018-08-25T08:11:29.696Z,7.03
2018-08-25T08:13:58.290Z,7.20
2018-08-25T08:16:26.766Z,7.40
2018-08-25T08:18:55.224Z,6.87
2018-08-25T08:21:23.742Z,8.13
2018-08-25T08:23:52.244Z,8.65
2018-08-25T08:26:20.754Z,7.42
2018-08-25T08:28:49.270Z,7.53
2018-08-25T08:31:17.762Z,7.37
2018-08-25T08:33:46.217Z,7.20
2018-08-25T08:36:14.724Z,7.03
2018-08-25T08:38:43.249Z,6.80
2018-08-25T08:41:11.769Z,7.70
2018-08-25T08:43:40.256Z,6.08
2018-08-25T08:46:08.739Z,7.00
2018-08-25T08:48:37.215Z,6.10
2018-08-25T08:51:05.707Z,6.70
2018-08-25T08:53:34.179Z,7.22
2018-08-25T08:56:02.653Z,6.25
2018-08-25T08:58:31.077Z,6.58
2018-08-25T09:00:59.541Z,6.80
2018-08-25T09:03:28.012Z,6.47
2018-08-25T09:05:56.429Z,6.60
2018-08-25T09:08:24.959Z,6.12
2018-08-25T09:10:53.394Z,11.28
2018-08-25T09:13:21.842Z,7.42
2018-08-25T09:15:50.290Z,7.55
2018-08-25T09:18:18.749Z,6.12
2018-08-25T09:20:47.193Z,5.70
2018-08-25T09:23:15.646Z,5.70
2018-08-25T09:25:44.074Z,6.25
2018-08-25T09:28:12.571Z,6.10
2018-08-25T09:30:41.041Z,5.62
2018-08-25T09:33:09.563Z,5.80
2018-08-25T09:35:37.991Z,5.35
2018-08-25T09:38:06.795Z,6.00
2018-08-25T09:40:35.320Z,5.55
2018-08-25T09:43:03.842Z,4.72
2018-08-25T09:45:32.357Z,5.83
2018-08-25T09:48:00.858Z,4.92
2018-08-25T09:50:29.300Z,5.20
2018-08-25T09:52:57.856Z,6.62
2018-08-25T09:55:26.322Z,4.97
2018-08-25T09:57:54.807Z,6.47
2018-08-25T10:00:23.401Z,5.67
2018-08-25T10:02:51.882Z,4.90
2018-08-25T10:05:21.247Z,5.33
2018-08-25T10:07:49.692Z,5.15
2018-08-25T10:10:18.158Z,5.75
2018-08-25T10:12:46.690Z,5.30
2018-08-25T10:15:20.254Z,5.03
2018-08-25T10:17:49.206Z,4.97
2018-08-25T10:20:17.672Z,5.05
2018-08-25T10:22:46.164Z,4.95
2018-08-25T10:25:14.704Z,5.00
2018-08-25T10:27:43.191Z,5.67
2018-08-25T10:30:11.809Z,5.00
2018-08-25T10:32:40.548Z,4.90
2018-08-25T10:35:09.022Z,5.08
2018-08-25T10:37:37.447Z,4.85
2018-08-25T10:40:05.985Z,6.10
2018-08-25T10:42:34.425Z,5.85
2018-08-25T10:45:02.940Z,5.55
2018-08-25T10:47:31.366Z,5.58
2018-08-25T10:49:59.829Z,5.17
2018-08-25T10:52:28.346Z,5.72
2018-08-25T10:54:56.856Z,5.75
2018-08-25T10:57:25.354Z,5.72
2018-08-25T10:59:53.870Z,5.75
2018-08-25T11:02:25.442Z,5.20
2018-08-25T11:04:53.957Z,5.17
2018-08-25T11:07:23.151Z,5.60
2018-08-25T11:09:52.183Z,5.22
2018-08-25T11:12:20.727Z,5.08
2018-08-25T11:14:49.267Z,5.65
2018-08-25T11:17:17.699Z,5.15
2018-08-25T11:19:46.163Z,5.03
2018-08-25T11:22:14.625Z,5.60
2018-08-25T11:24:43.073Z,5.30
2018-08-25T11:27:11.572Z,6.08
2018-08-25T11:29:40.056Z,5.22
2018-08-25T11:32:08.517Z,5.10
2018-08-25T11:34:36.963Z,5.75
2018-08-25T11:37:05.817Z,5.37
2018-08-25T11:39:34.364Z,4.87
2018-08-25T11:42:02.898Z,6.05
2018-08-25T11:44:31.327Z,5.58
2018-08-25T11:46:59.774Z,4.90
2018-08-25T11:49:28.209Z,4.65
2018-08-25T11:51:56.853Z,4.45
2018-08-25T11:54:25.310Z,4.03
2018-08-25T11:56:53.782Z,3.67
2018-08-25T11:59:22.202Z,4.87
2018-08-25T12:01:50.706Z,3.58
2018-08-25T12:04:19.121Z,4.08
2018-08-25T12:06:47.570Z,4.00
2018-08-25T12:09:16.037Z,3.08
2018-08-25T12:11:44.491Z,4.12
2018-08-25T12:14:12.914Z,3.50
2018-08-25T12:16:41.390Z,5.55
2018-08-25T12:19:09.810Z,3.52
2018-08-25T12:21:38.255Z,3.87
2018-08-25T12:24:06.880Z,3.35
2018-08-25T12:26:35.337Z,3.22
2018-08-25T12:29:03.971Z,4.05
2018-08-25T12:31:32.393Z,4.20
2018-08-25T12:34:00.831Z,3.45
2018-08-25T12:36:29.270Z,3.60
2018-08-25T12:38:57.814Z,3.52
2018-08-25T12:41:26.249Z,3.45
2018-08-25T12:43:54.722Z,3.92
2018-08-25T12:46:23.185Z,3.62
2018-08-25T12:48:51.781Z,4.10
2018-08-25T12:51:20.178Z,4.17
2018-08-25T12:53:48.671Z,4.10
2018-08-25T12:56:17.143Z,3.70
2018-08-25T12:58:45.657Z,3.98
2018-08-25T13:01:14.132Z,3.27
2018-08-25T13:03:42.666Z,3.83
2018-08-25T13:06:11.173Z,3.17
2018-08-25T13:08:39.707Z,3.00
2018-08-25T13:11:08.141Z,2.47
2018-08-25T13:13:36.652Z,2.80
2018-08-25T13:16:05.128Z,3.00
2018-08-25T13:18:33.621Z,2.50
2018-08-25T13:21:02.129Z,2.45
2018-08-25T13:23:30.701Z,2.20
2018-08-25T13:25:59.150Z,2.22
2018-08-25T13:28:27.800Z,2.17
2018-08-25T13:30:56.397Z,1.95
2018-08-25T13:33:24.783Z,1.90
2018-08-25T13:35:53.291Z,2.27
2018-08-25T13:38:21.849Z,2.17
2018-08-25T13:40:50.590Z,2.08
2018-08-25T13:43:19.152Z,2.30
2018-08-25T13:45:47.685Z,1.70
2018-08-25T13:48:19.396Z,1.82
2018-08-25T13:50:49.407Z,1.60
2018-08-25T13:53:18.950Z,1.87
2018-08-25T13:55:47.638Z,2.10
2018-08-25T13:58:16.276Z,1.62
2018-08-25T14:00:47.359Z,1.30
2018-08-25T14:03:17.877Z,1.80
2018-08-25T14:05:47.512Z,1.77
2018-08-25T14:08:19.501Z,1.50
2018-08-25T14:10:49.578Z,1.50
2018-08-25T14:13:19.568Z,2.17
2018-08-25T14:15:49.373Z,1.77
2018-08-25T14:18:18.474Z,1.47
2018-08-25T14:20:46.941Z,1.52
2018-08-25T14:23:15.452Z,1.92
2018-08-25T14:25:43.999Z,4.60
2018-08-25T14:28:12.507Z,1.60
2018-08-25T14:30:40.991Z,1.45
2018-08-25T14:33:09.527Z,1.55
2018-08-25T14:35:38.008Z,1.15
2018-08-25T14:38:06.676Z,1.77
2018-08-25T14:40:35.201Z,1.60
2018-08-25T14:43:03.719Z,1.42
2018-08-25T14:45:32.182Z,1.27
2018-08-25T14:48:00.683Z,1.55
2018-08-25T14:50:29.158Z,1.45
2018-08-25T14:52:57.740Z,1.42
2018-08-25T14:55:26.226Z,1.82
2018-08-25T14:57:54.742Z,1.60
2018-08-25T15:00:23.272Z,1.70
2018-08-25T15:02:51.750Z,1.47
2018-08-25T15:05:20.298Z,1.70
2018-08-25T15:07:48.830Z,1.77
2018-08-25T15:10:17.345Z,2.42
2018-08-25T15:12:45.913Z,1.70
2018-08-25T15:15:14.426Z,1.85
2018-08-25T15:17:42.943Z,1.80
2018-08-25T15:20:11.472Z,1.80
2018-08-25T15:22:40.029Z,1.50
2018-08-25T15:25:08.572Z,1.67
2018-08-25T15:27:37.079Z,1.42
2018-08-25T15:30:05.765Z,1.90
2018-08-25T15:32:34.263Z,1.50
2018-08-25T15:35:02.815Z,2.20
2018-08-25T15:37:31.377Z,2.15
2018-08-25T15:39:59.953Z,1.50
2018-08-25T15:42:28.513Z,1.92
2018-08-25T15:44:57.058Z,1.70
2018-08-25T15:47:25.578Z,1.60
2018-08-25T15:49:54.095Z,1.30
2018-08-25T15:52:22.659Z,1.40
2018-08-25T15:54:51.219Z,1.70
2018-08-25T15:57:19.780Z,1.72
2018-08-25T15:59:48.359Z,1.87
2018-08-25T16:02:16.869Z,1.20
2018-08-25T16:04:45.421Z,1.40
2018-08-25T16:07:13.923Z,1.40
2018-08-25T16:09:43.383Z,1.72
2018-08-25T16:12:11.929Z,1.50
2018-08-25T16:14:41.446Z,1.90
2018-08-25T16:17:10.094Z,1.45
2018-08-25T16:19:38.646Z,1.45
2018-08-25T16:22:07.114Z,1.32
2018-08-25T16:24:35.628Z,1.45
2018-08-25T16:27:04.193Z,1.52
2018-08-25T16:29:32.613Z,1.95
2018-08-25T16:32:01.131Z,1.47
2018-08-25T16:34:29.635Z,1.63
2018-08-25T16:36:58.136Z,1.83
2018-08-25T16:39:26.670Z,1.70
2018-08-25T16:41:55.143Z,2.00
2018-08-25T16:44:23.637Z,2.77
2018-08-25T16:46:52.205Z,2.30
2018-08-25T16:49:20.739Z,2.27
2018-08-25T16:51:49.238Z,2.02
2018-08-25T16:54:17.733Z,2.08
2018-08-25T16:56:46.254Z,3.00
2018-08-25T16:59:14.743Z,1.90
2018-08-25T17:01:43.311Z,2.07
2018-08-25T17:04:11.770Z,2.20
2018-08-25T17:06:40.297Z,2.27
2018-08-25T17:09:10.135Z,1.60
2018-08-25T17:11:38.626Z,1.80
2018-08-25T17:14:07.179Z,1.77
2018-08-25T17:16:35.773Z,1.97
2018-08-25T17:19:04.396Z,2.22
2018-08-25T17:21:32.895Z,1.80
2018-08-25T17:24:01.437Z,1.87
2018-08-25T17:26:29.924Z,1.50
2018-08-25T17:28:58.474Z,2.20
2018-08-25T17:31:26.972Z,1.90
2018-08-25T17:33:55.534Z,2.03
2018-08-25T17:36:24.074Z,2.20
2018-08-25T17:38:52.682Z,2.13
2018-08-25T17:41:21.205Z,2.77
2018-08-25T17:43:49.760Z,2.17
2018-08-25T17:46:18.283Z,1.80
2018-08-25T17:48:46.840Z,2.17
2018-08-25T17:51:15.382Z,2.47
2018-08-25T17:53:43.878Z,2.50
2018-08-25T17:56:12.625Z,2.10
2018-08-25T17:58:41.151Z,2.40
2018-08-25T18:01:10.210Z,2.33
2018-08-25T18:03:38.737Z,2.50
2018-08-25T18:06:07.222Z,2.40
2018-08-25T18:08:35.781Z,2.60
2018-08-25T18:11:04.402Z,2.33
2018-08-25T18:13:32.904Z,2.50
2018-08-25T18:16:01.414Z,3.17
2018-08-25T18:18:29.920Z,2.97
2018-08-25T18:20:58.435Z,2.80
2018-08-25T18:23:26.989Z,2.43
2018-08-25T18:25:55.524Z,2.90
2018-08-25T18:28:24.042Z,3.10
2018-08-25T18:30:52.602Z,2.60
2018-08-25T18:33:21.109Z,2.77
2018-08-25T18:35:49.653Z,2.40
2018-08-25T18:38:18.142Z,2.47
2018-08-25T18:40:46.819Z,2.40
2018-08-25T18:43:15.309Z,2.50
2018-08-25T18:45:43.849Z,2.60
2018-08-25T18:48:12.385Z,2.57
2018-08-25T18:50:40.911Z,2.73
2018-08-25T18:53:09.449Z,2.67
2018-08-25T18:55:37.977Z,2.57
2018-08-25T18:58:06.600Z,2.30
2018-08-25T19:00:35.650Z,2.50
2018-08-25T19:03:04.149Z,2.53
2018-08-25T19:05:32.641Z,2.77
2018-08-25T19:08:01.098Z,2.77
2018-08-25T19:10:29.645Z,2.27
2018-08-25T19:12:58.132Z,2.43
2018-08-25T19:15:26.583Z,2.47
2018-08-25T19:17:55.086Z,2.60
2018-08-25T19:20:23.553Z,2.33
2018-08-25T19:22:52.046Z,2.40
2018-08-25T19:25:20.640Z,2.17
2018-08-25T19:27:49.181Z,2.43
2018-08-25T19:30:18.624Z,2.47
2018-08-25T19:32:47.131Z,2.87
2018-08-25T19:35:32.818Z,2.43
2018-08-25T19:38:01.319Z,2.50
2018-08-25T19:40:29.809Z,2.60
2018-08-25T19:42:58.306Z,2.63
2018-08-25T19:45:26.786Z,2.83
2018-08-25T19:47:55.995Z,2.63
2018-08-25T19:50:24.467Z,3.10
2018-08-25T19:52:53.002Z,2.70
2018-08-25T19:55:21.547Z,2.83
2018-08-25T19:57:50.361Z,2.50
2018-08-25T20:00:18.985Z,3.60
2018-08-25T20:02:47.428Z,3.30
2018-08-25T20:05:16.057Z,2.83
2018-08-25T20:07:44.478Z,3.20
2018-08-25T20:10:12.965Z,2.67
2018-08-25T20:12:41.420Z,3.27
2018-08-25T20:18:07.234Z,3.10
2018-08-25T20:20:35.809Z,3.60
2018-08-25T20:23:04.463Z,3.30
2018-08-25T20:25:32.979Z,3.93
2018-08-25T20:28:01.588Z,3.73
2018-08-25T20:30:30.191Z,4.23
2018-08-25T20:32:58.641Z,4.03
2018-08-25T20:35:27.125Z,3.93
2018-08-25T20:37:55.658Z,4.30
2018-08-25T20:40:24.155Z,4.37
2018-08-25T20:42:52.644Z,3.97
2018-08-25T20:45:21.270Z,4.23
2018-08-25T20:47:49.703Z,4.13
2018-08-25T20:50:18.170Z,3.93
2018-08-25T20:52:46.678Z,4.17
2018-08-25T20:55:15.209Z,4.10
2018-08-25T20:57:43.692Z,3.87
2018-08-25T21:00:12.269Z,4.27
2018-08-25T21:02:40.817Z,3.40
2018-08-25T21:05:09.343Z,4.00
2018-08-25T21:07:37.838Z,4.03
2018-08-25T21:10:07.285Z,3.73
2018-08-25T21:12:35.826Z,4.10
2018-08-25T21:15:04.491Z,4.13
2018-08-25T21:17:33.002Z,4.73
2018-08-25T21:20:01.461Z,4.50
2018-08-25T21:22:29.985Z,4.20
2018-08-25T21:24:58.485Z,3.67
2018-08-25T21:27:27.017Z,4.27
2018-08-25T21:29:55.486Z,3.83
2018-08-25T21:32:23.982Z,3.70
2018-08-25T21:34:52.490Z,4.07
2018-08-25T21:37:20.949Z,3.73
2018-08-25T21:39:49.395Z,4.17
2018-08-25T21:42:17.858Z,3.80
2018-08-25T21:44:46.347Z,4.03
2018-08-25T21:47:15.296Z,3.40
2018-08-25T21:49:43.737Z,3.57
2018-08-25T21:52:12.207Z,3.10
2018-08-25T21:54:40.689Z,3.40
2018-08-25T21:57:09.143Z,3.57
2018-08-25T21:59:37.558Z,3.33
2018-08-25T22:02:06.047Z,3.27
2018-08-25T22:04:34.567Z,3.20
2018-08-25T22:07:03.049Z,3.40
2018-08-25T22:09:31.493Z,2.60
2018-08-25T22:11:59.946Z,2.40
2018-08-25T22:14:28.387Z,3.03
2018-08-25T22:16:56.855Z,2.80
2018-08-25T22:19:25.353Z,1.97
2018-08-25T22:21:53.811Z,2.80
2018-08-25T22:24:22.298Z,2.77
2018-08-25T22:26:50.730Z,2.43
2018-08-25T22:29:19.191Z,2.07
2018-08-25T22:31:47.622Z,2.20
2018-08-25T22:34:16.084Z,2.27
2018-08-25T22:36:44.578Z,2.00
2018-08-25T22:39:13.489Z,2.30
2018-08-25T22:41:41.990Z,2.30
2018-08-25T22:44:11.113Z,2.50
2018-08-25T22:46:39.592Z,2.10
2018-08-25T22:49:08.635Z,2.57
2018-08-25T22:51:37.166Z,2.50
2018-08-25T22:54:05.801Z,2.30
2018-08-25T22:56:34.240Z,2.77
2018-08-25T22:59:02.732Z,2.27
2018-08-25T23:01:31.253Z,2.10
2018-08-25T23:03:59.627Z,1.93
2018-08-25T23:06:28.117Z,2.27
2018-08-25T23:08:56.605Z,2.30
2018-08-25T23:11:25.078Z,2.53
2018-08-25T23:13:53.550Z,2.00
2018-08-25T23:16:22.158Z,2.00
2018-08-25T23:18:50.704Z,2.13
2018-08-25T23:21:19.255Z,2.30
2018-08-25T23:23:47.750Z,3.50
2018-08-25T23:26:16.219Z,2.10
2018-08-25T23:28:44.739Z,2.20
2018-08-25T23:31:13.203Z,2.13
2018-08-25T23:33:41.723Z,2.27
2018-08-25T23:36:10.203Z,2.60
2018-08-25T23:38:38.720Z,2.37
2018-08-25T23:41:07.213Z,1.97
2018-08-25T23:43:35.775Z,2.03
2018-08-25T23:46:04.269Z,2.10
2018-08-25T23:48:32.771Z,2.20
2018-08-25T23:51:01.233Z,2.17
2018-08-25T23:53:29.706Z,2.20
2018-08-25T23:55:58.151Z,2.40
2018-08-25T23:58:26.636Z,2.70
